sensor_id;sensor_type;location;lat;lon;timestamp;P1;durP1;ratioP1;P2;durP2;ratioP2
36443;SDS011;24692;45.642;13.806;2023-11-21T00:02:07;12.73;;;9.00;;
36443;SDS011;24692;45.642;13.806;2023-11-21T00:04:32;13.30;;;8.07;;
36443;SDS011;24692;45.642;13.806;2023-11-21T00:06:58;11.97;;;9.07;;
36443;SDS011;24692;45.642;13.806;2023-11-21T00:09:24;11.60;;;8.93;;
36443;SDS011;24692;45.642;13.806;2023-11-21T00:11:49;13.17;;;8.23;;
36443;SDS011;24692;45.642;13.806;2023-11-21T00:14:15;13.57;;;9.10;;
36443;SDS011;24692;45.642;13.806;2023-11-21T00:16:41;12.03;;;8.03;;
36443;SDS011;24692;45.642;13.806;2023-11-21T00:19:07;12.03;;;8.03;;
36443;SDS011;24692;45.642;13.806;2023-11-21T00:21:32;14.33;;;9.23;;
36443;SDS011;24692;45.642;13.806;2023-11-21T00:23:58;11.43;;;8.77;;
36443;SDS011;24692;45.642;13.806;2023-11-21T00:26:24;13.57;;;8.87;;
36443;SDS011;24692;45.642;13.806;2023-11-21T00:28:50;14.23;;;10.37;;
36443;SDS011;24692;45.642;13.806;2023-11-21T00:31:15;17.47;;;10.53;;
36443;SDS011;24692;45.642;13.806;2023-11-21T00:33:41;17.17;;;10.97;;
36443;SDS011;24692;45.642;13.806;2023-11-21T00:36:08;18.43;;;11.10;;
36443;SDS011;24692;45.642;13.806;2023-11-21T00:38:34;13.23;;;8.47;;
36443;SDS011;24692;45.642;13.806;2023-11-21T00:41:01;14.93;;;8.40;;
36443;SDS011;24692;45.642;13.806;2023-11-21T00:43:28;11.83;;;8.57;;
36443;SDS011;24692;45.642;13.806;2023-11-21T00:45:53;11.70;;;8.60;;
36443;SDS011;24692;45.642;13.806;2023-11-21T00:48:19;13.27;;;8.97;;
36443;SDS011;24692;45.642;13.806;2023-11-21T00:50:45;12.53;;;9.17;;
36443;SDS011;24692;45.642;13.806;2023-11-21T00:53:10;17.13;;;9.77;;
36443;SDS011;24692;45.642;13.806;2023-11-21T00:55:36;18.03;;;9.80;;
36443;SDS011;24692;45.642;13.806;2023-11-21T00:58:05;15.43;;;9.57;;
36443;SDS011;24692;45.642;13.806;2023-11-21T01:00:32;14.97;;;9.30;;
36443;SDS011;24692;45.642;13.806;2023-11-21T01:02:58;12.37;;;9.10;;
36443;SDS011;24692;45.642;13.806;2023-11-21T01:05:24;10.73;;;8.13;;
36443;SDS011;24692;45.642;13.806;2023-11-21T01:07:50;11.90;;;8.37;;
36443;SDS011;24692;45.642;13.806;2023-11-21T01:10:15;13.67;;;8.70;;
36443;SDS011;24692;45.642;13.806;2023-11-21T01:12:42;11.10;;;8.07;;
36443;SDS011;24692;45.642;13.806;2023-11-21T01:15:08;14.03;;;7.80;;
36443;SDS011;24692;45.642;13.806;2023-11-21T01:17:34;12.93;;;8.10;;
36443;SDS011;24692;45.642;13.806;2023-11-21T01:20:01;16.10;;;9.33;;
36443;SDS011;24692;45.642;13.806;2023-11-21T01:22:28;12.60;;;8.60;;
36443;SDS011;24692;45.642;13.806;2023-11-21T01:24:54;20.27;;;8.60;;
36443;SDS011;24692;45.642;13.806;2023-11-21T01:27:19;13.70;;;9.07;;
36443;SDS011;24692;45.642;13.806;2023-11-21T01:29:45;13.67;;;9.00;;
36443;SDS011;24692;45.642;13.806;2023-11-21T01:32:11;12.80;;;8.97;;
36443;SDS011;24692;45.642;13.806;2023-11-21T01:34:37;12.93;;;8.63;;
36443;SDS011;24692;45.642;13.806;2023-11-21T01:37:03;12.70;;;8.63;;
36443;SDS011;24692;45.642;13.806;2023-11-21T01:39:30;15.60;;;10.10;;
36443;SDS011;24692;45.642;13.806;2023-11-21T01:41:56;17.50;;;9.77;;
36443;SDS011;24692;45.642;13.806;2023-11-21T01:44:25;17.40;;;10.10;;
36443;SDS011;24692;45.642;13.806;2023-11-21T01:46:51;13.00;;;9.17;;
36443;SDS011;24692;45.642;13.806;2023-11-21T01:49:17;14.83;;;9.27;;
36443;SDS011;24692;45.642;13.806;2023-11-21T01:51:47;17.57;;;9.43;;
36443;SDS011;24692;45.642;13.806;2023-11-21T01:54:15;12.53;;;8.60;;
36443;SDS011;24692;45.642;13.806;2023-11-21T01:56:45;14.50;;;8.83;;
36443;SDS011;24692;45.642;13.806;2023-11-21T01:59:12;13.97;;;8.90;;
36443;SDS011;24692;45.642;13.806;2023-11-21T02:01:41;13.83;;;8.30;;
36443;SDS011;24692;45.642;13.806;2023-11-21T02:04:06;11.73;;;8.20;;
36443;SDS011;24692;45.642;13.806;2023-11-21T02:06:33;13.70;;;8.73;;
36443;SDS011;24692;45.642;13.806;2023-11-21T02:08:59;12.73;;;8.30;;
36443;SDS011;24692;45.642;13.806;2023-11-21T02:11:25;16.10;;;7.80;;
36443;SDS011;24692;45.642;13.806;2023-11-21T02:13:52;10.43;;;7.53;;
36443;SDS011;24692;45.642;13.806;2023-11-21T02:16:19;10.47;;;7.27;;
36443;SDS011;24692;45.642;13.806;2023-11-21T02:18:46;9.07;;;7.60;;
36443;SDS011;24692;45.642;13.806;2023-11-21T02:21:13;9.87;;;7.60;;
36443;SDS011;24692;45.642;13.806;2023-11-21T02:23:39;10.90;;;7.70;;
36443;SDS011;24692;45.642;13.806;2023-11-21T02:26:09;13.43;;;7.43;;
36443;SDS011;24692;45.642;13.806;2023-11-21T02:28:36;13.23;;;7.67;;
36443;SDS011;24692;45.642;13.806;2023-11-21T02:31:03;12.53;;;7.30;;
36443;SDS011;24692;45.642;13.806;2023-11-21T02:33:30;11.40;;;7.43;;
36443;SDS011;24692;45.642;13.806;2023-11-21T02:35:59;10.33;;;7.00;;
36443;SDS011;24692;45.642;13.806;2023-11-21T02:38:25;10.10;;;6.47;;
36443;SDS011;24692;45.642;13.806;2023-11-21T02:40:51;13.93;;;6.73;;
36443;SDS011;24692;45.642;13.806;2023-11-21T02:43:17;9.80;;;6.70;;
36443;SDS011;24692;45.642;13.806;2023-11-21T02:45:42;12.43;;;6.10;;
36443;SDS011;24692;45.642;13.806;2023-11-21T02:48:08;11.97;;;6.60;;
36443;SDS011;24692;45.642;13.806;2023-11-21T02:50:34;9.73;;;6.43;;
36443;SDS011;24692;45.642;13.806;2023-11-21T02:53:00;12.43;;;6.60;;
36443;SDS011;24692;45.642;13.806;2023-11-21T02:55:27;10.00;;;5.80;;
36443;SDS011;24692;45.642;13.806;2023-11-21T02:57:53;9.07;;;6.07;;
36443;SDS011;24692;45.642;13.806;2023-11-21T03:00:21;9.47;;;6.37;;
36443;SDS011;24692;45.642;13.806;2023-11-21T03:02:49;7.47;;;5.60;;
36443;SDS011;24692;45.642;13.806;2023-11-21T03:05:15;10.17;;;6.10;;
36443;SDS011;24692;45.642;13.806;2023-11-21T03:07:40;8.40;;;5.97;;
36443;SDS011;24692;45.642;13.806;2023-11-21T03:10:07;9.93;;;5.80;;
36443;SDS011;24692;45.642;13.806;2023-11-21T03:12:36;11.80;;;5.70;;
36443;SDS011;24692;45.642;13.806;2023-11-21T03:15:05;9.40;;;5.43;;
36443;SDS011;24692;45.642;13.806;2023-11-21T03:17:32;9.47;;;6.07;;
36443;SDS011;24692;45.642;13.806;2023-11-21T03:19:59;11.37;;;5.80;;
36443;SDS011;24692;45.642;13.806;2023-11-21T03:22:25;12.53;;;5.87;;
36443;SDS011;24692;45.642;13.806;2023-11-21T03:24:51;9.53;;;5.47;;
36443;SDS011;24692;45.642;13.806;2023-11-21T03:27:17;10.00;;;5.70;;
36443;SDS011;24692;45.642;13.806;2023-11-21T03:29:43;9.90;;;6.50;;
36443;SDS011;24692;45.642;13.806;2023-11-21T03:32:11;10.43;;;5.33;;
36443;SDS011;24692;45.642;13.806;2023-11-21T03:34:42;10.67;;;5.83;;
36443;SDS011;24692;45.642;13.806;2023-11-21T03:37:21;10.40;;;5.93;;
36443;SDS011;24692;45.642;13.806;2023-11-21T03:39:47;13.27;;;5.97;;
36443;SDS011;24692;45.642;13.806;2023-11-21T03:42:13;8.27;;;5.23;;
36443;SDS011;24692;45.642;13.806;2023-11-21T03:44:39;12.23;;;6.33;;
36443;SDS011;24692;45.642;13.806;2023-11-21T03:47:04;10.87;;;7.07;;
36443;SDS011;24692;45.642;13.806;2023-11-21T03:49:30;12.50;;;8.50;;
36443;SDS011;24692;45.642;13.806;2023-11-21T03:51:56;12.93;;;7.87;;
36443;SDS011;24692;45.642;13.806;2023-11-21T03:54:21;13.57;;;7.70;;
36443;SDS011;24692;45.642;13.806;2023-11-21T03:56:47;12.00;;;7.40;;
36443;SDS011;24692;45.642;13.806;2023-11-21T03:59:13;11.07;;;7.13;;
36443;SDS011;24692;45.642;13.806;2023-11-21T04:01:38;10.80;;;8.27;;
36443;SDS011;24692;45.642;13.806;2023-11-21T04:04:04;12.30;;;8.97;;
36443;SDS011;24692;45.642;13.806;2023-11-21T04:06:30;13.53;;;9.90;;
36443;SDS011;24692;45.642;13.806;2023-11-21T04:08:57;13.80;;;10.03;;
36443;SDS011;24692;45.642;13.806;2023-11-21T04:11:23;13.40;;;9.07;;
36443;SDS011;24692;45.642;13.806;2023-11-21T04:13:49;16.03;;;8.80;;
36443;SDS011;24692;45.642;13.806;2023-11-21T04:16:15;13.17;;;8.83;;
36443;SDS011;24692;45.642;13.806;2023-11-21T04:18:41;12.53;;;8.07;;
36443;SDS011;24692;45.642;13.806;2023-11-21T04:21:07;11.90;;;9.10;;
36443;SDS011;24692;45.642;13.806;2023-11-21T04:23:33;11.67;;;8.93;;
36443;SDS011;24692;45.642;13.806;2023-11-21T04:26:00;11.33;;;9.00;;
36443;SDS011;24692;45.642;13.806;2023-11-21T04:28:27;13.03;;;9.30;;
36443;SDS011;24692;45.642;13.806;2023-11-21T04:30:53;12.97;;;10.07;;
36443;SDS011;24692;45.642;13.806;2023-11-21T04:33:18;11.93;;;10.00;;
36443;SDS011;24692;45.642;13.806;2023-11-21T04:35:44;14.23;;;9.47;;
36443;SDS011;24692;45.642;13.806;2023-11-21T04:38:11;14.80;;;10.60;;
36443;SDS011;24692;45.642;13.806;2023-11-21T04:40:37;14.93;;;9.50;;
36443;SDS011;24692;45.642;13.806;2023-11-21T04:43:02;14.77;;;8.97;;
36443;SDS011;24692;45.642;13.806;2023-11-21T04:45:29;13.27;;;9.40;;
36443;SDS011;24692;45.642;13.806;2023-11-21T04:47:55;14.07;;;8.57;;
36443;SDS011;24692;45.642;13.806;2023-11-21T04:50:21;11.67;;;7.90;;
36443;SDS011;24692;45.642;13.806;2023-11-21T04:52:46;10.70;;;7.00;;
36443;SDS011;24692;45.642;13.806;2023-11-21T04:55:12;8.30;;;6.57;;
36443;SDS011;24692;45.642;13.806;2023-11-21T04:57:38;8.13;;;6.03;;
36443;SDS011;24692;45.642;13.806;2023-11-21T05:00:06;9.43;;;5.37;;
36443;SDS011;24692;45.642;13.806;2023-11-21T05:02:33;8.40;;;5.07;;
36443;SDS011;24692;45.642;13.806;2023-11-21T05:05:00;8.17;;;5.57;;
36443;SDS011;24692;45.642;13.806;2023-11-21T05:07:26;13.20;;;5.53;;
36443;SDS011;24692;45.642;13.806;2023-11-21T05:09:55;7.80;;;4.97;;
36443;SDS011;24692;45.642;13.806;2023-11-21T05:12:24;8.20;;;4.70;;
36443;SDS011;24692;45.642;13.806;2023-11-21T05:14:50;6.10;;;5.00;;
36443;SDS011;24692;45.642;13.806;2023-11-21T05:17:16;8.43;;;5.00;;
36443;SDS011;24692;45.642;13.806;2023-11-21T05:19:42;11.73;;;5.07;;
36443;SDS011;24692;45.642;13.806;2023-11-21T05:22:10;13.00;;;4.73;;
36443;SDS011;24692;45.642;13.806;2023-11-21T05:24:37;11.30;;;4.70;;
36443;SDS011;24692;45.642;13.806;2023-11-21T05:27:04;9.10;;;4.90;;
36443;SDS011;24692;45.642;13.806;2023-11-21T05:29:30;4.67;;;3.90;;
36443;SDS011;24692;45.642;13.806;2023-11-21T05:31:56;4.37;;;3.70;;
36443;SDS011;24692;45.642;13.806;2023-11-21T05:34:21;8.10;;;4.00;;
36443;SDS011;24692;45.642;13.806;2023-11-21T05:36:49;7.17;;;4.07;;
36443;SDS011;24692;45.642;13.806;2023-11-21T05:39:15;5.53;;;3.47;;
36443;SDS011;24692;45.642;13.806;2023-11-21T05:41:42;6.57;;;4.10;;
36443;SDS011;24692;45.642;13.806;2023-11-21T05:44:08;7.80;;;3.97;;
36443;SDS011;24692;45.642;13.806;2023-11-21T05:46:34;5.70;;;3.40;;
36443;SDS011;24692;45.642;13.806;2023-11-21T05:49:00;8.07;;;3.90;;
36443;SDS011;24692;45.642;13.806;2023-11-21T05:51:25;6.60;;;3.43;;
36443;SDS011;24692;45.642;13.806;2023-11-21T05:53:51;6.60;;;4.33;;
36443;SDS011;24692;45.642;13.806;2023-11-21T05:56:17;8.13;;;4.57;;
36443;SDS011;24692;45.642;13.806;2023-11-21T05:58:43;10.30;;;6.43;;
36443;SDS011;24692;45.642;13.806;2023-11-21T06:01:08;8.37;;;4.47;;
36443;SDS011;24692;45.642;13.806;2023-11-21T06:03:37;5.87;;;3.00;;
36443;SDS011;24692;45.642;13.806;2023-11-21T06:06:03;10.60;;;3.17;;
36443;SDS011;24692;45.642;13.806;2023-11-21T06:08:29;6.07;;;3.63;;
36443;SDS011;24692;45.642;13.806;2023-11-21T06:10:55;4.43;;;2.60;;
36443;SDS011;24692;45.642;13.806;2023-11-21T06:13:21;4.00;;;2.70;;
36443;SDS011;24692;45.642;13.806;2023-11-21T06:15:50;4.63;;;3.17;;
36443;SDS011;24692;45.642;13.806;2023-11-21T06:18:16;4.17;;;2.80;;
36443;SDS011;24692;45.642;13.806;2023-11-21T06:20:44;4.27;;;2.80;;
36443;SDS011;24692;45.642;13.806;2023-11-21T06:23:10;8.07;;;3.57;;
36443;SDS011;24692;45.642;13.806;2023-11-21T06:25:36;4.20;;;3.20;;
36443;SDS011;24692;45.642;13.806;2023-11-21T06:28:02;3.57;;;3.10;;
36443;SDS011;24692;45.642;13.806;2023-11-21T06:30:28;4.43;;;2.50;;
36443;SDS011;24692;45.642;13.806;2023-11-21T06:32:54;4.50;;;2.63;;
36443;SDS011;24692;45.642;13.806;2023-11-21T06:35:21;2.93;;;2.67;;
36443;SDS011;24692;45.642;13.806;2023-11-21T06:37:47;5.20;;;2.70;;
36443;SDS011;24692;45.642;13.806;2023-11-21T06:40:13;4.43;;;3.00;;
36443;SDS011;24692;45.642;13.806;2023-11-21T06:42:40;5.20;;;2.67;;
36443;SDS011;24692;45.642;13.806;2023-11-21T06:45:06;4.53;;;2.63;;
36443;SDS011;24692;45.642;13.806;2023-11-21T06:47:33;5.07;;;2.90;;
36443;SDS011;24692;45.642;13.806;2023-11-21T06:49:59;5.00;;;3.03;;
36443;SDS011;24692;45.642;13.806;2023-11-21T06:52:25;4.20;;;3.00;;
36443;SDS011;24692;45.642;13.806;2023-11-21T06:54:51;3.73;;;2.90;;
36443;SDS011;24692;45.642;13.806;2023-11-21T06:57:17;4.17;;;2.80;;
36443;SDS011;24692;45.642;13.806;2023-11-21T06:59:43;3.83;;;2.90;;
36443;SDS011;24692;45.642;13.806;2023-11-21T07:02:09;3.83;;;3.03;;
36443;SDS011;24692;45.642;13.806;2023-11-21T07:04:35;4.57;;;2.87;;
36443;SDS011;24692;45.642;13.806;2023-11-21T07:07:04;4.77;;;2.90;;
36443;SDS011;24692;45.642;13.806;2023-11-21T07:09:31;5.20;;;3.07;;
36443;SDS011;24692;45.642;13.806;2023-11-21T07:11:57;4.27;;;2.57;;
36443;SDS011;24692;45.642;13.806;2023-11-21T07:14:23;4.73;;;3.43;;
36443;SDS011;24692;45.642;13.806;2023-11-21T07:16:49;6.23;;;3.43;;
36443;SDS011;24692;45.642;13.806;2023-11-21T07:19:14;4.60;;;3.07;;
36443;SDS011;24692;45.642;13.806;2023-11-21T07:21:40;4.70;;;3.53;;
36443;SDS011;24692;45.642;13.806;2023-11-21T07:24:06;5.67;;;3.67;;
36443;SDS011;24692;45.642;13.806;2023-11-21T07:26:33;7.10;;;3.53;;
36443;SDS011;24692;45.642;13.806;2023-11-21T07:29:00;6.77;;;3.80;;
36443;SDS011;24692;45.642;13.806;2023-11-21T07:31:29;5.40;;;3.43;;
36443;SDS011;24692;45.642;13.806;2023-11-21T07:33:55;4.80;;;3.03;;
36443;SDS011;24692;45.642;13.806;2023-11-21T07:36:24;3.90;;;2.90;;
36443;SDS011;24692;45.642;13.806;2023-11-21T07:38:50;5.30;;;3.43;;
36443;SDS011;24692;45.642;13.806;2023-11-21T07:41:17;5.80;;;2.93;;
36443;SDS011;24692;45.642;13.806;2023-11-21T07:43:46;4.17;;;2.57;;
36443;SDS011;24692;45.642;13.806;2023-11-21T07:46:12;4.80;;;2.63;;
36443;SDS011;24692;45.642;13.806;2023-11-21T07:48:38;5.73;;;2.43;;
36443;SDS011;24692;45.642;13.806;2023-11-21T07:51:11;3.17;;;2.30;;
36443;SDS011;24692;45.642;13.806;2023-11-21T07:53:38;6.27;;;2.73;;
36443;SDS011;24692;45.642;13.806;2023-11-21T07:56:04;3.90;;;2.50;;
36443;SDS011;24692;45.642;13.806;2023-11-21T07:58:32;3.33;;;2.43;;
36443;SDS011;24692;45.642;13.806;2023-11-21T08:00:58;4.50;;;2.50;;
36443;SDS011;24692;45.642;13.806;2023-11-21T08:03:25;4.27;;;2.30;;
36443;SDS011;24692;45.642;13.806;2023-11-21T08:05:59;3.40;;;2.27;;
36443;SDS011;24692;45.642;13.806;2023-11-21T08:08:25;5.47;;;2.30;;
36443;SDS011;24692;45.642;13.806;2023-11-21T08:10:52;4.73;;;2.43;;
36443;SDS011;24692;45.642;13.806;2023-11-21T08:13:24;4.20;;;2.27;;
36443;SDS011;24692;45.642;13.806;2023-11-21T08:15:53;3.70;;;2.30;;
36443;SDS011;24692;45.642;13.806;2023-11-21T08:18:19;5.27;;;2.30;;
36443;SDS011;24692;45.642;13.806;2023-11-21T08:20:45;3.20;;;2.03;;
36443;SDS011;24692;45.642;13.806;2023-11-21T08:23:14;3.20;;;2.30;;
36443;SDS011;24692;45.642;13.806;2023-11-21T08:25:42;2.60;;;2.20;;
36443;SDS011;24692;45.642;13.806;2023-11-21T08:28:08;3.63;;;2.37;;
36443;SDS011;24692;45.642;13.806;2023-11-21T08:30:34;4.17;;;2.50;;
36443;SDS011;24692;45.642;13.806;2023-11-21T08:33:00;5.13;;;2.10;;
36443;SDS011;24692;45.642;13.806;2023-11-21T08:35:26;2.90;;;2.20;;
36443;SDS011;24692;45.642;13.806;2023-11-21T08:37:51;3.73;;;2.20;;
36443;SDS011;24692;45.642;13.806;2023-11-21T08:40:20;5.47;;;2.20;;
36443;SDS011;24692;45.642;13.806;2023-11-21T08:42:49;2.33;;;2.10;;
36443;SDS011;24692;45.642;13.806;2023-11-21T08:45:17;3.57;;;2.10;;
36443;SDS011;24692;45.642;13.806;2023-11-21T08:47:44;4.20;;;2.13;;
36443;SDS011;24692;45.642;13.806;2023-11-21T08:50:10;4.30;;;2.30;;
36443;SDS011;24692;45.642;13.806;2023-11-21T08:52:40;2.20;;;2.00;;
36443;SDS011;24692;45.642;13.806;2023-11-21T08:55:07;4.03;;;2.10;;
36443;SDS011;24692;45.642;13.806;2023-11-21T08:57:36;5.83;;;1.87;;
36443;SDS011;24692;45.642;13.806;2023-11-21T09:00:03;5.43;;;2.20;;
36443;SDS011;24692;45.642;13.806;2023-11-21T09:02:32;3.03;;;1.80;;
36443;SDS011;24692;45.642;13.806;2023-11-21T09:05:00;3.13;;;2.20;;
36443;SDS011;24692;45.642;13.806;2023-11-21T09:07:28;3.10;;;2.10;;
36443;SDS011;24692;45.642;13.806;2023-11-21T09:09:54;2.93;;;2.27;;
36443;SDS011;24692;45.642;13.806;2023-11-21T09:12:20;5.73;;;1.90;;
36443;SDS011;24692;45.642;13.806;2023-11-21T09:14:46;2.20;;;1.80;;
36443;SDS011;24692;45.642;13.806;2023-11-21T09:17:15;3.37;;;2.03;;
36443;SDS011;24692;45.642;13.806;2023-11-21T09:19:47;4.30;;;2.00;;
36443;SDS011;24692;45.642;13.806;2023-11-21T09:22:16;4.57;;;1.93;;
36443;SDS011;24692;45.642;13.806;2023-11-21T09:24:42;2.30;;;1.63;;
36443;SDS011;24692;45.642;13.806;2023-11-21T09:27:10;2.33;;;1.63;;
36443;SDS011;24692;45.642;13.806;2023-11-21T09:29:37;1.97;;;1.70;;
36443;SDS011;24692;45.642;13.806;2023-11-21T09:32:04;5.40;;;1.90;;
36443;SDS011;24692;45.642;13.806;2023-11-21T09:34:34;1.97;;;1.77;;
36443;SDS011;24692;45.642;13.806;2023-11-21T09:37:04;2.47;;;1.80;;
36443;SDS011;24692;45.642;13.806;2023-11-21T09:39:31;2.37;;;1.77;;
36443;SDS011;24692;45.642;13.806;2023-11-21T09:42:01;3.40;;;1.80;;
36443;SDS011;24692;45.642;13.806;2023-11-21T09:44:35;3.67;;;1.73;;
36443;SDS011;24692;45.642;13.806;2023-11-21T09:47:07;4.23;;;2.00;;
36443;SDS011;24692;45.642;13.806;2023-11-21T09:49:35;2.43;;;1.70;;
36443;SDS011;24692;45.642;13.806;2023-11-21T09:52:03;1.60;;;1.37;;
36443;SDS011;24692;45.642;13.806;2023-11-21T09:54:31;2.97;;;1.60;;
36443;SDS011;24692;45.642;13.806;2023-11-21T09:56:59;8.67;;;1.83;;
36443;SDS011;24692;45.642;13.806;2023-11-21T09:59:25;2.27;;;1.67;;
36443;SDS011;24692;45.642;13.806;2023-11-21T10:01:55;2.83;;;2.00;;
36443;SDS011;24692;45.642;13.806;2023-11-21T10:04:23;5.23;;;1.80;;
36443;SDS011;24692;45.642;13.806;2023-11-21T10:06:51;2.40;;;1.50;;
36443;SDS011;24692;45.642;13.806;2023-11-21T10:09:19;3.67;;;1.90;;
36443;SDS011;24692;45.642;13.806;2023-11-21T10:11:46;1.57;;;1.47;;
36443;SDS011;24692;45.642;13.806;2023-11-21T10:14:14;2.13;;;1.50;;
36443;SDS011;24692;45.642;13.806;2023-11-21T10:16:44;4.60;;;1.70;;
36443;SDS011;24692;45.642;13.806;2023-11-21T10:19:12;3.50;;;1.57;;
36443;SDS011;24692;45.642;13.806;2023-11-21T10:21:39;1.40;;;1.30;;
36443;SDS011;24692;45.642;13.806;2023-11-21T10:24:05;1.43;;;1.33;;
36443;SDS011;24692;45.642;13.806;2023-11-21T10:26:31;3.07;;;1.40;;
36443;SDS011;24692;45.642;13.806;2023-11-21T10:28:59;1.10;;;1.00;;
36443;SDS011;24692;45.642;13.806;2023-11-21T10:31:32;1.50;;;1.00;;
36443;SDS011;24692;45.642;13.806;2023-11-21T10:34:15;1.33;;;1.20;;
36443;SDS011;24692;45.642;13.806;2023-11-21T10:36:45;1.50;;;1.10;;
36443;SDS011;24692;45.642;13.806;2023-11-21T10:39:17;2.30;;;1.40;;
36443;SDS011;24692;45.642;13.806;2023-11-21T10:41:47;1.00;;;0.90;;
36443;SDS011;24692;45.642;13.806;2023-11-21T10:44:14;4.33;;;1.40;;
36443;SDS011;24692;45.642;13.806;2023-11-21T10:46:45;1.70;;;1.13;;
36443;SDS011;24692;45.642;13.806;2023-11-21T10:49:19;3.27;;;1.17;;
36443;SDS011;24692;45.642;13.806;2023-11-21T10:51:45;1.60;;;1.17;;
36443;SDS011;24692;45.642;13.806;2023-11-21T10:54:16;1.57;;;1.10;;
36443;SDS011;24692;45.642;13.806;2023-11-21T10:56:46;1.30;;;1.10;;
36443;SDS011;24692;45.642;13.806;2023-11-21T10:59:16;2.33;;;0.90;;
36443;SDS011;24692;45.642;13.806;2023-11-21T11:01:42;2.43;;;1.13;;
36443;SDS011;24692;45.642;13.806;2023-11-21T11:04:10;1.90;;;0.97;;
36443;SDS011;24692;45.642;13.806;2023-11-21T11:06:44;1.30;;;1.27;;
36443;SDS011;24692;45.642;13.806;2023-11-21T11:09:21;1.43;;;1.30;;
36443;SDS011;24692;45.642;13.806;2023-11-21T11:11:47;3.70;;;1.13;;
36443;SDS011;24692;45.642;13.806;2023-11-21T11:14:14;5.73;;;1.20;;
36443;SDS011;24692;45.642;13.806;2023-11-21T11:16:41;1.10;;;0.97;;
36443;SDS011;24692;45.642;13.806;2023-11-21T11:19:08;1.83;;;0.90;;
36443;SDS011;24692;45.642;13.806;2023-11-21T11:29:41;1.60;;;1.17;;
36443;SDS011;24692;45.642;13.806;2023-11-21T11:38:20;1.00;;;0.90;;
36443;SDS011;24692;45.642;13.806;2023-11-21T11:40:48;1.67;;;0.90;;
36443;SDS011;24692;45.642;13.806;2023-11-21T11:43:25;1.93;;;1.00;;
36443;SDS011;24692;45.642;13.806;2023-11-21T11:45:52;3.17;;;1.20;;
36443;SDS011;24692;45.642;13.806;2023-11-21T11:48:21;1.87;;;1.67;;
36443;SDS011;24692;45.642;13.806;2023-11-21T11:51:06;1.20;;;1.10;;
36443;SDS011;24692;45.642;13.806;2023-11-21T11:53:39;5.23;;;1.20;;
36443;SDS011;24692;45.642;13.806;2023-11-21T11:59:00;1.00;;;0.90;;
36443;SDS011;24692;45.642;13.806;2023-11-21T12:01:27;1.07;;;1.00;;
36443;SDS011;24692;45.642;13.806;2023-11-21T12:07:00;1.43;;;1.00;;
36443;SDS011;24692;45.642;13.806;2023-11-21T12:09:30;0.93;;;0.80;;
36443;SDS011;24692;45.642;13.806;2023-11-21T12:11:57;0.60;;;0.60;;
36443;SDS011;24692;45.642;13.806;2023-11-21T12:14:23;0.60;;;0.60;;
36443;SDS011;24692;45.642;13.806;2023-11-21T12:16:49;0.60;;;0.60;;
36443;SDS011;24692;45.642;13.806;2023-11-21T12:19:16;2.57;;;1.20;;
36443;SDS011;24692;45.642;13.806;2023-11-21T12:21:42;2.47;;;1.20;;
36443;SDS011;24692;45.642;13.806;2023-11-21T12:24:09;4.00;;;1.17;;
36443;SDS011;24692;45.642;13.806;2023-11-21T12:26:38;1.03;;;0.90;;
36443;SDS011;24692;45.642;13.806;2023-11-21T12:29:04;2.83;;;1.13;;
36443;SDS011;24692;45.642;13.806;2023-11-21T12:31:32;1.63;;;1.03;;
36443;SDS011;24692;45.642;13.806;2023-11-21T12:33:59;4.87;;;1.10;;
36443;SDS011;24692;45.642;13.806;2023-11-21T12:36:26;1.90;;;1.00;;
36443;SDS011;24692;45.642;13.806;2023-11-21T12:38:54;1.40;;;1.20;;
36443;SDS011;24692;45.642;13.806;2023-11-21T12:41:19;2.00;;;1.07;;
36443;SDS011;24692;45.642;13.806;2023-11-21T12:43:46;2.90;;;1.30;;
36443;SDS011;24692;45.642;13.806;2023-11-21T12:46:13;1.90;;;1.37;;
36443;SDS011;24692;45.642;13.806;2023-11-21T12:48:43;0.77;;;0.70;;
36443;SDS011;24692;45.642;13.806;2023-11-21T12:51:11;0.87;;;0.80;;
36443;SDS011;24692;45.642;13.806;2023-11-21T12:53:39;0.70;;;0.70;;
36443;SDS011;24692;45.642;13.806;2023-11-21T12:56:14;2.90;;;0.73;;
36443;SDS011;24692;45.642;13.806;2023-11-21T12:58:43;2.27;;;1.10;;
36443;SDS011;24692;45.642;13.806;2023-11-21T13:01:12;2.30;;;0.73;;
36443;SDS011;24692;45.642;13.806;2023-11-21T13:03:43;3.37;;;0.90;;
36443;SDS011;24692;45.642;13.806;2023-11-21T13:06:10;1.10;;;0.87;;
36443;SDS011;24692;45.642;13.806;2023-11-21T13:08:37;1.13;;;0.80;;
36443;SDS011;24692;45.642;13.806;2023-11-21T13:11:04;0.80;;;0.80;;
36443;SDS011;24692;45.642;13.806;2023-11-21T13:13:31;1.43;;;0.90;;
36443;SDS011;24692;45.642;13.806;2023-11-21T13:15:59;1.93;;;0.77;;
36443;SDS011;24692;45.642;13.806;2023-11-21T13:18:26;1.03;;;0.97;;
36443;SDS011;24692;45.642;13.806;2023-11-21T13:20:56;0.70;;;0.70;;
36443;SDS011;24692;45.642;13.806;2023-11-21T13:23:23;1.43;;;0.87;;
36443;SDS011;24692;45.642;13.806;2023-11-21T13:25:49;2.27;;;1.07;;
36443;SDS011;24692;45.642;13.806;2023-11-21T13:28:15;1.60;;;1.17;;
36443;SDS011;24692;45.642;13.806;2023-11-21T13:30:43;0.93;;;0.90;;
36443;SDS011;24692;45.642;13.806;2023-11-21T13:33:09;2.70;;;1.07;;
36443;SDS011;24692;45.642;13.806;2023-11-21T13:35:42;1.70;;;0.73;;
36443;SDS011;24692;45.642;13.806;2023-11-21T13:38:09;0.77;;;0.77;;
36443;SDS011;24692;45.642;13.806;2023-11-21T13:40:37;1.10;;;0.80;;
36443;SDS011;24692;45.642;13.806;2023-11-21T13:43:11;1.70;;;1.00;;
36443;SDS011;24692;45.642;13.806;2023-11-21T13:45:39;2.10;;;1.03;;
36443;SDS011;24692;45.642;13.806;2023-11-21T13:48:05;2.03;;;1.00;;
36443;SDS011;24692;45.642;13.806;2023-11-21T13:50:44;1.70;;;1.17;;
36443;SDS011;24692;45.642;13.806;2023-11-21T13:53:35;1.63;;;1.07;;
36443;SDS011;24692;45.642;13.806;2023-11-21T13:56:03;1.63;;;1.07;;
36443;SDS011;24692;45.642;13.806;2023-11-21T13:58:29;1.43;;;0.90;;
36443;SDS011;24692;45.642;13.806;2023-11-21T14:01:09;2.57;;;0.90;;
36443;SDS011;24692;45.642;13.806;2023-11-21T14:03:50;1.77;;;1.20;;
36443;SDS011;24692;45.642;13.806;2023-11-21T14:06:22;2.00;;;0.90;;
36443;SDS011;24692;45.642;13.806;2023-11-21T14:08:53;2.23;;;1.17;;
36443;SDS011;24692;45.642;13.806;2023-11-21T14:11:22;1.67;;;1.40;;
36443;SDS011;24692;45.642;13.806;2023-11-21T14:13:48;2.00;;;1.20;;
36443;SDS011;24692;45.642;13.806;2023-11-21T14:16:14;1.53;;;1.40;;
36443;SDS011;24692;45.642;13.806;2023-11-21T14:18:42;2.53;;;1.50;;
36443;SDS011;24692;45.642;13.806;2023-11-21T14:21:19;5.07;;;1.60;;
36443;SDS011;24692;45.642;13.806;2023-11-21T14:23:44;4.50;;;1.77;;
36443;SDS011;24692;45.642;13.806;2023-11-21T14:26:13;2.27;;;1.60;;
36443;SDS011;24692;45.642;13.806;2023-11-21T14:28:40;4.37;;;2.57;;
36443;SDS011;24692;45.642;13.806;2023-11-21T14:31:07;3.57;;;1.70;;
36443;SDS011;24692;45.642;13.806;2023-11-21T14:33:38;2.83;;;1.67;;
36443;SDS011;24692;45.642;13.806;2023-11-21T14:36:04;4.50;;;1.87;;
36443;SDS011;24692;45.642;13.806;2023-11-21T14:38:33;1.30;;;1.10;;
36443;SDS011;24692;45.642;13.806;2023-11-21T14:40:58;5.43;;;1.23;;
36443;SDS011;24692;45.642;13.806;2023-11-21T14:43:24;2.77;;;1.40;;
36443;SDS011;24692;45.642;13.806;2023-11-21T14:45:54;3.10;;;1.30;;
36443;SDS011;24692;45.642;13.806;2023-11-21T14:48:21;1.87;;;1.27;;
36443;SDS011;24692;45.642;13.806;2023-11-21T14:51:05;2.20;;;1.20;;
36443;SDS011;24692;45.642;13.806;2023-11-21T14:53:31;2.47;;;1.10;;